Terminal Aerodrome Forecast
Issued by NWS Sterling, VA

Home | Current Version | Previous Version | Text Only | Print | Product List | Glossary On
Versions: 1 2 3 4 5 6 7 8 9 10 11 12 13 14 15 16
841
FTUS41 KLWX 012327
TAFCHO
TAF
KCHO 012327Z 0200/0224 VRB03KT 6SM BR BKN008 OVC015
     FM020100 VRB03KT 2SM -SHRADZ BR BKN003 OVC008
     FM020600 VRB03KT 2SM -DZ BR BKN003 OVC008
     FM021400 22006KT P6SM BKN015
     FM021600 22007KT P6SM BKN050
     FM022200 22008KT 5SM -SHRA BKN050 BKN100=

USA.gov is the U.S. government's official web portal to all federal, state and local government web resources and services.